createdAt,value
2022-09-13T00:02:19.935Z,4.07
2022-09-13T00:04:46.834Z,3.72
2022-09-13T00:07:13.703Z,3.33
2022-09-13T00:09:40.691Z,3.42
2022-09-13T00:12:07.689Z,3.58
2022-09-13T00:14:34.571Z,3.88
2022-09-13T00:17:01.495Z,3.83
2022-09-13T00:19:28.341Z,3.95
2022-09-13T00:21:55.263Z,4.05
2022-09-13T00:24:22.155Z,4.53
2022-09-13T00:26:49.123Z,4.13
2022-09-13T00:29:16.353Z,3.88
2022-09-13T00:31:43.376Z,3.70
2022-09-13T00:34:10.351Z,3.30
2022-09-13T00:36:37.190Z,3.50
2022-09-13T00:39:04.061Z,3.72
2022-09-13T00:41:30.994Z,4.07
2022-09-13T00:44:03.169Z,3.88
2022-09-13T00:46:47.805Z,3.90
2022-09-13T00:49:20.389Z,3.78
2022-09-13T00:52:04.033Z,3.92
2022-09-13T00:54:42.501Z,3.97
2022-09-13T00:57:12.971Z,3.45
2022-09-13T00:59:48.005Z,3.65
2022-09-13T01:04:44.205Z,4.20
2022-09-13T01:07:15.808Z,3.85
2022-09-13T01:09:48.496Z,4.20
2022-09-13T01:12:25.658Z,3.80
2022-09-13T01:14:56.599Z,3.75
2022-09-13T01:17:23.637Z,4.03
2022-09-13T01:19:50.522Z,3.88
2022-09-13T01:23:10.635Z,4.50
2022-09-13T01:26:19.177Z,4.38
2022-09-13T01:29:15.660Z,4.07
2022-09-13T01:32:11.448Z,3.90
2022-09-13T01:35:31.984Z,4.07
2022-09-13T01:38:39.941Z,3.47
2022-09-13T01:41:19.138Z,3.58
2022-09-13T01:44:22.246Z,4.20
2022-09-13T01:47:19.734Z,3.60
2022-09-13T01:50:08.339Z,3.70
2022-09-13T01:52:57.398Z,4.28
2022-09-13T01:56:12.492Z,3.92
2022-09-13T01:58:52.284Z,3.42
2022-09-13T02:01:28.883Z,4.13
2022-09-13T02:04:13.392Z,4.18
2022-09-13T02:06:52.506Z,4.05
2022-09-13T02:09:27.364Z,4.32
2022-09-13T02:12:03.681Z,3.78
2022-09-13T02:14:41.172Z,4.10
2022-09-13T02:17:19.264Z,4.32
2022-09-13T02:20:24.502Z,3.67
2022-09-13T02:23:15.187Z,4.00
2022-09-13T02:25:45.260Z,4.28
2022-09-13T02:28:18.831Z,4.70
2022-09-13T02:30:53.439Z,3.90
2022-09-13T02:33:33.649Z,4.60
2022-09-13T02:36:22.671Z,4.63
2022-09-13T02:39:02.187Z,4.20
2022-09-13T02:41:48.129Z,4.75
2022-09-13T02:44:38.399Z,4.63
2022-09-13T02:47:35.813Z,4.50
2022-09-13T02:50:23.433Z,5.13
2022-09-13T02:53:01.568Z,5.47
2022-09-13T02:56:24.036Z,5.20
2022-09-13T02:59:04.199Z,4.38
2022-09-13T03:01:31.394Z,5.05
2022-09-13T03:03:58.411Z,5.05
2022-09-13T03:06:28.789Z,4.63
2022-09-13T03:09:01.003Z,4.80
2022-09-13T03:11:58.074Z,4.30
2022-09-13T03:14:48.199Z,4.68
2022-09-13T03:17:55.808Z,5.68
2022-09-13T03:21:00.843Z,4.50
2022-09-13T03:23:49.659Z,5.15
2022-09-13T03:26:51.489Z,5.03
2022-09-13T03:29:48.531Z,5.50
2022-09-13T03:32:28.363Z,5.28
2022-09-13T03:35:42.875Z,5.40
2022-09-13T03:38:24.987Z,5.00
2022-09-13T03:41:12.501Z,5.30
2022-09-13T03:44:05.734Z,5.15
2022-09-13T03:46:44.633Z,4.95
2022-09-13T03:49:18.700Z,5.28
2022-09-13T03:51:50.686Z,5.63
2022-09-13T03:54:29.557Z,5.40
2022-09-13T03:57:21.820Z,6.40
2022-09-13T03:59:55.714Z,5.88
2022-09-13T04:02:26.678Z,6.43
2022-09-13T04:04:53.767Z,6.47
2022-09-13T04:07:24.773Z,6.15
2022-09-13T04:09:51.788Z,6.05
2022-09-13T04:12:19.348Z,6.18
2022-09-13T04:14:46.542Z,7.13
2022-09-13T04:17:14.580Z,6.05
2022-09-13T04:19:42.465Z,6.45
2022-09-13T04:22:09.588Z,6.43
2022-09-13T04:24:36.556Z,6.70
2022-09-13T04:27:04.125Z,5.95
2022-09-13T04:29:31.866Z,5.78
2022-09-13T04:31:59.463Z,6.20
2022-09-13T04:34:26.392Z,6.80
2022-09-13T04:36:54.073Z,6.60
2022-09-13T04:39:22.188Z,6.53
2022-09-13T04:41:51.449Z,6.13
2022-09-13T04:44:18.899Z,6.90
2022-09-13T04:46:49.612Z,5.90
2022-09-13T04:49:20.137Z,6.22
2022-09-13T04:51:48.175Z,6.20
2022-09-13T04:54:16.353Z,6.55
2022-09-13T04:56:45.594Z,6.50
2022-09-13T04:59:13.161Z,6.43
2022-09-13T05:01:40.441Z,6.93
2022-09-13T05:04:09.966Z,6.45
2022-09-13T05:06:38.234Z,7.18
2022-09-13T05:09:05.814Z,7.38
2022-09-13T05:11:33.549Z,7.03
2022-09-13T05:14:01.223Z,6.93
2022-09-13T05:16:32.622Z,6.90
2022-09-13T05:19:00.868Z,7.63
2022-09-13T05:21:28.127Z,7.72
2022-09-13T05:23:56.817Z,7.60
2022-09-13T05:26:29.228Z,7.65
2022-09-13T05:28:56.261Z,6.90
2022-09-13T05:31:28.192Z,7.43
2022-09-13T05:34:00.216Z,7.20
2022-09-13T05:36:27.811Z,7.65
2022-09-13T05:39:18.712Z,7.68
2022-09-13T05:41:45.411Z,7.03
2022-09-13T05:44:13.727Z,6.78
2022-09-13T05:46:42.815Z,7.25
2022-09-13T05:49:13.766Z,6.57
2022-09-13T05:51:41.060Z,6.90
2022-09-13T05:54:11.115Z,7.32
2022-09-13T05:56:38.114Z,6.68
2022-09-13T05:59:05.179Z,6.65
2022-09-13T06:01:32.897Z,7.00
2022-09-13T06:04:00.583Z,6.45
2022-09-13T06:06:27.774Z,5.68
2022-09-13T06:08:56.859Z,6.80
2022-09-13T06:11:26.445Z,6.88
2022-09-13T06:13:53.785Z,6.95
2022-09-13T06:16:21.015Z,6.32
2022-09-13T06:18:49.123Z,6.60
2022-09-13T06:21:21.636Z,6.35
2022-09-13T06:23:54.215Z,6.10
2022-09-13T06:26:25.803Z,6.32
2022-09-13T06:28:57.337Z,5.45
2022-09-13T06:31:28.372Z,5.88
2022-09-13T06:34:02.408Z,5.07
2022-09-13T06:36:31.265Z,5.82
2022-09-13T06:39:00.615Z,5.20
2022-09-13T06:41:28.619Z,5.20
2022-09-13T06:43:59.122Z,4.75
2022-09-13T06:46:29.341Z,4.75
2022-09-13T06:49:00.834Z,4.70
2022-09-13T06:51:29.958Z,5.03
2022-09-13T06:53:57.554Z,4.53
2022-09-13T06:56:26.837Z,4.28
2022-09-13T06:58:59.281Z,4.68
2022-09-13T07:01:31.960Z,4.32
2022-09-13T07:04:07.751Z,3.92
2022-09-13T07:06:38.655Z,4.13
2022-09-13T07:09:09.147Z,4.47
2022-09-13T07:11:39.380Z,4.50
2022-09-13T07:14:07.448Z,4.18
2022-09-13T07:16:38.637Z,4.25
2022-09-13T07:19:22.818Z,4.03
2022-09-13T07:21:50.880Z,4.30
2022-09-13T07:24:19.342Z,4.72
2022-09-13T07:26:48.114Z,4.15
2022-09-13T07:29:23.635Z,4.05
2022-09-13T07:31:54.571Z,4.00
2022-09-13T07:34:25.541Z,3.75
2022-09-13T07:36:55.517Z,4.03
2022-09-13T07:39:24.234Z,3.53
2022-09-13T07:41:53.574Z,3.63
2022-09-13T07:44:20.985Z,4.20
2022-09-13T07:46:47.971Z,3.75
2022-09-13T07:49:18.915Z,4.05
2022-09-13T07:51:46.436Z,3.55
2022-09-13T07:54:17.770Z,3.30
2022-09-13T07:56:45.624Z,3.42
2022-09-13T07:59:16.296Z,4.00
2022-09-13T08:01:47.291Z,4.15
2022-09-13T08:04:23.979Z,3.53
2022-09-13T08:06:51.128Z,3.65
2022-09-13T08:09:18.777Z,4.80
2022-09-13T08:11:54.568Z,4.95
2022-09-13T08:14:23.496Z,4.65
2022-09-13T08:16:51.218Z,5.00
2022-09-13T08:19:19.567Z,5.68
2022-09-13T08:21:47.406Z,5.20
2022-09-13T08:24:18.972Z,5.55
2022-09-13T08:26:47.601Z,5.82
2022-09-13T08:29:16.310Z,6.03
2022-09-13T08:31:44.246Z,5.47
2022-09-13T08:34:15.047Z,5.80
2022-09-13T08:36:43.949Z,5.60
2022-09-13T08:39:15.202Z,5.20
2022-09-13T08:41:42.493Z,4.65
2022-09-13T08:44:41.757Z,5.00
2022-09-13T08:47:47.012Z,4.90
2022-09-13T08:50:21.503Z,5.22
2022-09-13T08:53:05.972Z,5.10
2022-09-13T08:55:54.669Z,4.78
2022-09-13T08:58:38.915Z,5.43
2022-09-13T09:01:28.765Z,5.38
2022-09-13T09:04:29.957Z,5.32
2022-09-13T09:07:10.786Z,5.50
2022-09-13T09:10:05.716Z,5.32
2022-09-13T09:12:43.159Z,5.10
2022-09-13T09:15:21.619Z,5.60
2022-09-13T09:18:10.696Z,5.10
2022-09-13T09:20:46.537Z,5.65
2022-09-13T09:23:26.388Z,5.47
2022-09-13T09:26:13.477Z,4.80
2022-09-13T09:28:43.091Z,4.90
2022-09-13T09:32:03.333Z,5.30
2022-09-13T09:35:03.672Z,4.68
2022-09-13T09:37:34.524Z,4.75
2022-09-13T09:40:10.492Z,4.18
2022-09-13T09:42:49.347Z,4.50
2022-09-13T09:45:30.207Z,4.50
2022-09-13T09:48:05.744Z,5.05
2022-09-13T09:50:44.528Z,4.30
2022-09-13T09:53:29.400Z,3.92
2022-09-13T09:56:25.578Z,3.95
2022-09-13T09:58:56.915Z,4.57
2022-09-13T10:01:35.388Z,4.90
2022-09-13T10:04:11.087Z,4.32
2022-09-13T10:06:41.977Z,4.60
2022-09-13T10:09:21.357Z,4.65
2022-09-13T10:11:58.441Z,4.00
2022-09-13T10:14:42.512Z,4.15
2022-09-13T10:17:27.914Z,4.10
2022-09-13T10:20:01.504Z,4.30
2022-09-13T10:22:32.935Z,3.80
2022-09-13T10:25:24.708Z,3.75
2022-09-13T10:28:00.428Z,3.70
2022-09-13T10:31:02.340Z,3.85
2022-09-13T10:33:38.119Z,3.97
2022-09-13T10:36:17.926Z,3.60
2022-09-13T10:38:59.655Z,3.60
2022-09-13T10:41:35.101Z,3.58
2022-09-13T10:44:20.828Z,4.22
2022-09-13T10:46:51.408Z,3.47
2022-09-13T10:49:57.082Z,3.60
2022-09-13T10:53:05.151Z,3.47
2022-09-13T10:55:42.642Z,3.80
2022-09-13T10:58:21.451Z,3.55
2022-09-13T11:01:13.482Z,3.17
2022-09-13T11:04:05.237Z,3.47
2022-09-13T11:07:21.647Z,3.50
2022-09-13T11:10:03.106Z,3.50
2022-09-13T11:13:12.950Z,3.47
2022-09-13T11:16:16.479Z,2.95
2022-09-13T11:19:07.099Z,2.53
2022-09-13T11:22:41.920Z,2.28
2022-09-13T11:25:56.453Z,2.50
2022-09-13T11:28:35.339Z,3.38
2022-09-13T11:31:30.892Z,2.05
2022-09-13T11:34:54.639Z,2.45
2022-09-13T11:37:37.771Z,2.10
2022-09-13T11:40:48.691Z,2.00
2022-09-13T11:43:24.640Z,2.10
2022-09-13T11:46:13.632Z,1.60
2022-09-13T11:49:21.116Z,1.60
2022-09-13T11:52:10.743Z,1.83
2022-09-13T11:54:55.967Z,1.80
2022-09-13T11:57:41.503Z,1.88
2022-09-13T12:00:50.880Z,1.92
2022-09-13T12:04:14.331Z,1.92
2022-09-13T12:07:10.356Z,1.60
2022-09-13T12:10:16.127Z,1.80
2022-09-13T12:12:56.979Z,1.98
2022-09-13T12:15:39.288Z,1.70
2022-09-13T12:18:26.155Z,1.80
2022-09-13T12:21:42.309Z,2.20
2022-09-13T12:25:12.768Z,1.98
2022-09-13T12:34:45.364Z,2.03
2022-09-13T12:34:48.275Z,1.95
2022-09-13T12:37:45.461Z,1.90
2022-09-13T12:40:43.810Z,1.63
2022-09-13T12:43:55.804Z,1.50
2022-09-13T12:47:08.305Z,1.70
2022-09-13T12:50:21.582Z,1.45
2022-09-13T12:53:08.980Z,1.60
2022-09-13T12:56:11.751Z,1.42
2022-09-13T12:59:19.388Z,2.00
2022-09-13T13:01:50.339Z,1.33
2022-09-13T13:04:35.294Z,1.48
2022-09-13T13:07:22.893Z,1.88
2022-09-13T13:09:53.808Z,1.30
2022-09-13T13:12:36.769Z,1.27
2022-09-13T13:15:16.675Z,1.30
2022-09-13T13:17:51.282Z,1.77
2022-09-13T13:20:58.232Z,1.60
2022-09-13T13:23:41.082Z,1.33
2022-09-13T13:26:42.686Z,1.25
2022-09-13T13:29:18.632Z,1.35
2022-09-13T13:31:57.967Z,1.60
2022-09-13T13:34:30.156Z,1.33
2022-09-13T13:37:02.436Z,1.50
2022-09-13T13:39:29.774Z,1.30
2022-09-13T13:42:00.002Z,1.30
2022-09-13T13:44:26.824Z,1.25
2022-09-13T13:47:09.132Z,1.20
2022-09-13T13:49:39.089Z,1.50
2022-09-13T13:52:09.131Z,1.33
2022-09-13T13:54:42.124Z,1.27
2022-09-13T13:57:32.398Z,1.55
2022-09-13T14:00:34.413Z,1.42
2022-09-13T14:03:35.333Z,1.20
2022-09-13T14:06:44.920Z,1.27
2022-09-13T14:09:51.453Z,1.48
2022-09-13T14:13:13.407Z,1.20
2022-09-13T14:16:50.888Z,1.02
2022-09-13T14:23:44.366Z,1.50
2022-09-13T14:30:44.072Z,1.25
2022-09-13T14:33:37.523Z,1.05
2022-09-13T14:36:18.665Z,1.58
2022-09-13T14:38:58.886Z,0.98
2022-09-13T14:41:39.342Z,1.30
2022-09-13T14:44:28.714Z,1.38
2022-09-13T14:47:23.024Z,1.17
2022-09-13T14:50:35.160Z,1.13
2022-09-13T14:58:27.684Z,1.15
2022-09-13T15:01:24.785Z,1.27
2022-09-13T15:05:12.907Z,1.17
2022-09-13T15:08:01.025Z,1.40
2022-09-13T15:10:55.862Z,1.50
2022-09-13T15:21:20.124Z,1.30
2022-09-13T15:24:01.975Z,1.65
2022-09-13T15:26:30.370Z,1.65
2022-09-13T15:29:03.218Z,1.65
2022-09-13T15:31:35.985Z,1.40
2022-09-13T15:34:17.833Z,1.60
2022-09-13T15:36:47.449Z,1.40
2022-09-13T15:39:21.675Z,1.25
2022-09-13T15:42:01.282Z,1.48
2022-09-13T15:44:30.390Z,1.50
2022-09-13T15:56:58.614Z,1.50
2022-09-13T15:59:25.973Z,1.40
2022-09-13T16:01:55.966Z,1.50
2022-09-13T16:04:25.492Z,1.40
2022-09-13T16:06:52.723Z,1.42
2022-09-13T16:09:23.968Z,1.20
2022-09-13T16:11:52.189Z,1.35
2022-09-13T16:14:19.758Z,1.30
2022-09-13T16:16:49.076Z,1.65
2022-09-13T16:19:24.509Z,1.60
2022-09-13T16:21:51.703Z,1.70
2022-09-13T16:24:18.745Z,1.55
2022-09-13T16:26:46.196Z,1.70
2022-09-13T16:29:14.351Z,1.60
2022-09-13T16:31:43.160Z,1.52
2022-09-13T16:34:10.255Z,1.60
2022-09-13T16:36:37.148Z,1.38
2022-09-13T16:39:05.529Z,1.40
2022-09-13T16:41:32.791Z,1.63
2022-09-13T16:43:59.792Z,1.88
2022-09-13T16:46:28.485Z,1.63
2022-09-13T16:48:57.038Z,1.30
2022-09-13T16:51:25.280Z,1.52
2022-09-13T16:53:54.249Z,1.88
2022-09-13T16:56:24.624Z,1.52
2022-09-13T16:58:52.733Z,1.58
2022-09-13T17:01:29.111Z,1.52
2022-09-13T17:03:57.462Z,1.50
2022-09-13T17:06:27.173Z,1.42
2022-09-13T17:09:01.141Z,1.30
2022-09-13T17:11:41.350Z,1.50
2022-09-13T17:14:11.502Z,1.23
2022-09-13T17:16:44.457Z,1.48
2022-09-13T17:19:19.708Z,1.38
2022-09-13T17:21:47.865Z,1.48
2022-09-13T17:24:15.319Z,1.55
2022-09-13T17:26:47.014Z,1.70
2022-09-13T17:29:15.043Z,1.83
2022-09-13T17:31:43.479Z,2.15
2022-09-13T17:34:13.146Z,1.60
2022-09-13T17:36:42.785Z,2.45
2022-09-13T17:39:10.770Z,2.28
2022-09-13T17:41:38.284Z,1.92
2022-09-13T17:44:05.881Z,2.08
2022-09-13T17:46:33.828Z,1.88
2022-09-13T17:49:01.474Z,1.80
2022-09-13T17:51:34.035Z,1.75
2022-09-13T17:54:06.137Z,1.63
2022-09-13T17:56:42.794Z,2.22
2022-09-13T17:59:44.485Z,1.80
2022-09-13T18:21:26.789Z,2.58
2022-09-13T18:23:58.339Z,2.45
2022-09-13T18:26:28.871Z,2.45
2022-09-13T18:29:02.781Z,2.83
2022-09-13T18:31:33.591Z,2.60
2022-09-13T18:34:04.802Z,2.78
2022-09-13T18:36:33.529Z,2.63
2022-09-13T18:39:04.874Z,2.42
2022-09-13T18:41:42.091Z,2.60
2022-09-13T18:44:13.820Z,2.17
2022-09-13T18:46:41.768Z,2.55
2022-09-13T18:49:10.368Z,2.65
2022-09-13T18:51:41.128Z,3.17
2022-09-13T18:54:16.034Z,2.80
2022-09-13T18:56:44.080Z,2.83
2022-09-13T18:59:11.675Z,2.42
2022-09-13T19:01:42.329Z,2.88
2022-09-13T19:04:19.887Z,2.30
2022-09-13T19:06:50.971Z,2.65
2022-09-13T19:09:20.945Z,2.83
2022-09-13T19:11:52.083Z,2.70
2022-09-13T19:14:23.448Z,2.63
2022-09-13T19:16:53.429Z,2.90
2022-09-13T19:19:20.755Z,2.70
2022-09-13T19:21:48.712Z,3.10
2022-09-13T19:24:19.071Z,2.88
2022-09-13T19:26:50.924Z,3.10
2022-09-13T19:29:23.110Z,3.05
2022-09-13T19:31:52.708Z,3.13
2022-09-13T19:34:22.723Z,3.50
2022-09-13T19:36:57.280Z,2.80
2022-09-13T19:39:29.144Z,2.63
2022-09-13T19:41:58.722Z,2.92
2022-09-13T19:44:25.989Z,2.75
2022-09-13T19:47:08.261Z,2.63
2022-09-13T19:49:40.269Z,2.65
2022-09-13T19:52:07.354Z,2.85
2022-09-13T19:54:34.339Z,2.83
2022-09-13T19:57:01.306Z,3.33
2022-09-13T19:59:28.573Z,2.80
2022-09-13T20:01:55.694Z,2.70
2022-09-13T20:04:23.677Z,3.10
2022-09-13T20:06:51.821Z,2.97
2022-09-13T20:09:20.663Z,2.70
2022-09-13T20:11:48.684Z,2.72
2022-09-13T20:14:19.303Z,2.58
2022-09-13T20:16:46.854Z,2.88
2022-09-13T20:19:39.719Z,3.28
2022-09-13T20:22:07.652Z,3.17
2022-09-13T20:24:34.493Z,2.67
2022-09-13T20:27:01.397Z,3.03
2022-09-13T20:29:28.256Z,3.40
2022-09-13T20:31:55.682Z,3.22
2022-09-13T20:34:22.549Z,3.05
2022-09-13T20:36:49.404Z,3.55
2022-09-13T20:39:16.773Z,3.35
2022-09-13T20:41:44.738Z,3.10
2022-09-13T20:44:12.348Z,3.20
2022-09-13T20:46:40.381Z,3.40
2022-09-13T20:49:09.122Z,3.17
2022-09-13T20:51:37.186Z,3.22
2022-09-13T20:54:05.214Z,3.03
2022-09-13T20:56:34.554Z,2.80
2022-09-13T20:59:03.311Z,3.20
2022-09-13T21:01:31.741Z,3.75
2022-09-13T21:03:59.914Z,3.33
2022-09-13T21:06:30.467Z,3.50
2022-09-13T21:09:00.106Z,3.72
2022-09-13T21:11:35.613Z,3.50
2022-09-13T21:14:08.776Z,3.60
2022-09-13T21:16:39.728Z,4.18
2022-09-13T21:19:07.905Z,3.72
2022-09-13T21:21:39.048Z,3.40
2022-09-13T21:24:09.730Z,3.50
2022-09-13T21:26:42.446Z,3.72
2022-09-13T21:29:11.476Z,3.83
2022-09-13T21:31:39.515Z,3.40
2022-09-13T21:34:12.667Z,3.50
2022-09-13T21:36:39.527Z,3.65
2022-09-13T21:39:07.123Z,3.63
2022-09-13T21:41:35.152Z,4.00
2022-09-13T21:44:02.185Z,3.72
2022-09-13T21:46:35.400Z,4.00
2022-09-13T21:49:06.791Z,3.50
2022-09-13T21:51:46.501Z,3.88
2022-09-13T21:54:16.782Z,4.10
2022-09-13T21:56:49.752Z,3.78
2022-09-13T21:59:19.567Z,3.60
2022-09-13T22:01:51.200Z,3.85
2022-09-13T22:04:27.034Z,4.10
2022-09-13T22:06:54.238Z,4.10
2022-09-13T22:09:27.065Z,4.00
2022-09-13T22:11:54.825Z,3.85
2022-09-13T22:14:22.293Z,4.80
2022-09-13T22:16:50.813Z,3.30
2022-09-13T22:19:26.881Z,3.45
2022-09-13T22:21:59.681Z,3.35
2022-09-13T22:24:29.830Z,4.18
2022-09-13T22:26:58.232Z,3.88
2022-09-13T22:29:26.084Z,4.20
2022-09-13T22:31:53.184Z,3.72
2022-09-13T22:34:24.211Z,3.60
2022-09-13T22:36:54.382Z,3.88
2022-09-13T22:39:21.181Z,3.83
2022-09-13T22:41:47.926Z,3.55
2022-09-13T22:44:15.441Z,3.95
2022-09-13T22:46:45.359Z,3.88
2022-09-13T22:49:15.545Z,4.13
2022-09-13T22:51:45.086Z,4.45
2022-09-13T22:54:13.799Z,4.07
2022-09-13T22:56:41.088Z,4.00
2022-09-13T22:59:13.225Z,4.50
2022-09-13T23:01:40.783Z,4.35
2022-09-13T23:04:08.226Z,4.47
2022-09-13T23:06:36.038Z,4.50
2022-09-13T23:09:06.632Z,4.80
2022-09-13T23:11:39.469Z,4.07
2022-09-13T23:14:10.075Z,4.95
2022-09-13T23:16:46.294Z,4.50
2022-09-13T23:19:14.722Z,4.90
2022-09-13T23:21:42.965Z,5.68
2022-09-13T23:24:18.232Z,4.53
2022-09-13T23:26:45.989Z,4.90
2022-09-13T23:29:19.499Z,4.63
2022-09-13T23:31:48.134Z,5.32
2022-09-13T23:34:15.620Z,4.32
2022-09-13T23:36:44.286Z,5.72
2022-09-13T23:39:17.750Z,5.32
2022-09-13T23:41:47.216Z,5.35
2022-09-13T23:44:15.360Z,5.10
2022-09-13T23:46:42.713Z,5.38
2022-09-13T23:49:10.111Z,5.32
2022-09-13T23:51:37.230Z,5.20
2022-09-13T23:54:04.683Z,4.97
2022-09-13T23:56:32.969Z,5.22
2022-09-13T23:59:01.795Z,4.90
